Time;durP1;ratioP1;P1;durP2;ratioP2;P2;SDS_P1;SDS_P2;PMS_P1;PMS_P2;Temp;Humidity;BMP_temperature;BMP_pressure;BME280_temperature;BME280_humidity;BME280_pressure;Samples;Min_cycle;Max_cycle;Signal;HPM_P1;HPM_P2
2024/01/29 00:01:42;;;;;;;;;;;5.00;99.90;;;;;;5029420;28;20370;-83
2024/01/29 00:04:07;;;;;;;;;;;5.20;99.90;;;;;;5028582;28;19966;-84
2024/01/29 00:06:33;;;;;;;;;;;5.00;99.90;;;;;;5017598;28;19926;-85
2024/01/29 00:08:59;;;;;;;;;;;4.90;99.90;;;;;;5014605;28;19944;-84
2024/01/29 00:11:24;;;;;;;;;;;6.50;99.90;;;;;;5005338;28;19973;-84
2024/01/29 00:13:50;;;;;;;;;;;4.80;99.90;;;;;;5014468;28;19928;-83
2024/01/29 00:16:16;;;;;;;;;;;4.80;99.90;;;;;;5011021;28;20394;-84
2024/01/29 00:18:42;;;;;;;;;;;5.10;99.90;;;;;;5023007;28;19921;-84
2024/01/29 00:21:07;;;;;;;;;;;4.80;99.90;;;;;;5013397;28;19967;-84
2024/01/29 00:23:33;;;;;;;;;;;5.40;99.90;;;;;;4996980;28;20274;-84
2024/01/29 00:25:59;;;;;;;;;;;4.80;99.90;;;;;;5011813;28;19921;-85
2024/01/29 00:28:24;;;;;;;;;;;4.80;99.90;;;;;;5014029;28;19925;-85
2024/01/29 00:30:50;;;;;;;;;;;5.20;99.90;;;;;;5005716;28;19930;-85
2024/01/29 00:33:15;;;;;;;;;;;3.10;99.90;;;;;;5010255;28;19922;-84
2024/01/29 00:35:41;;;;;;;;;;;5.50;99.90;;;;;;5012602;28;19922;-84
2024/01/29 00:38:07;;;;;;;;;;;4.70;99.90;;;;;;4997519;28;19932;-84
2024/01/29 00:40:33;;;;;;;;;;;5.20;99.90;;;;;;5011321;28;19922;-84
2024/01/29 00:43:02;;;;;;;;;;;5.70;99.90;;;;;;4995969;28;19936;-85
2024/01/29 00:45:28;;;;;;;;;;;5.00;99.90;;;;;;4974227;28;19928;-84
2024/01/29 00:47:54;;;;;;;;;;;4.70;99.90;;;;;;5010983;28;20294;-84
2024/01/29 00:50:19;;;;;;;;;;;4.70;99.90;;;;;;5010536;28;19957;-85
2024/01/29 00:52:45;;;;;;;;;;;4.70;99.90;;;;;;5002366;28;19925;-85
2024/01/29 00:55:10;;;;;;;;;;;4.70;99.90;;;;;;5025729;28;19922;-84
2024/01/29 00:57:36;;;;;;;;;;;5.20;99.90;;;;;;5013497;28;19972;-84
2024/01/29 01:00:02;;;;;;;;;;;4.80;99.90;;;;;;5011769;28;19922;-84
2024/01/29 01:02:28;;;;;;;;;;;4.70;99.90;;;;;;5026677;28;20374;-85
2024/01/29 01:04:54;;;;;;;;;;;4.70;99.90;;;;;;4997415;28;19936;-84
2024/01/29 01:07:19;;;;;;;;;;;4.60;99.90;;;;;;5012650;28;20004;-84
2024/01/29 01:09:45;;;;;;;;;;;6.80;99.90;;;;;;5013234;28;19936;-84
2024/01/29 01:12:11;;;;;;;;;;;4.50;99.90;;;;;;5028488;28;19921;-84
2024/01/29 01:14:36;;;;;;;;;;;4.50;99.90;;;;;;5013492;28;19972;-85
2024/01/29 01:17:02;;;;;;;;;;;4.50;99.90;;;;;;5010476;28;19925;-84
2024/01/29 01:19:27;;;;;;;;;;;4.50;99.90;;;;;;5014241;28;19928;-84
2024/01/29 01:21:53;;;;;;;;;;;4.40;99.90;;;;;;5009935;28;19922;-84
2024/01/29 01:24:18;;;;;;;;;;;4.70;99.90;;;;;;5012987;28;19928;-84
2024/01/29 01:26:44;;;;;;;;;;;4.40;99.90;;;;;;5013802;28;20176;-84
2024/01/29 01:29:09;;;;;;;;;;;5.00;99.90;;;;;;5013336;28;19928;-84
2024/01/29 01:31:35;;;;;;;;;;;5.90;99.90;;;;;;5012814;28;19975;-84
2024/01/29 01:34:01;;;;;;;;;;;4.30;99.90;;;;;;5011128;28;20302;-85
2024/01/29 01:36:26;;;;;;;;;;;4.30;99.90;;;;;;5029600;28;19921;-84
2024/01/29 01:38:52;;;;;;;;;;;4.30;99.90;;;;;;4997317;28;20011;-84
2024/01/29 01:41:17;;;;;;;;;;;4.20;99.90;;;;;;5012373;28;19929;-85
2024/01/29 01:43:43;;;;;;;;;;;4.20;99.90;;;;;;4996940;28;20346;-84
2024/01/29 01:46:22;;;;;;;;;;;4.10;99.90;;;;;;5028972;28;19917;-85
2024/01/29 01:48:51;;;;;;;;;;;4.10;99.90;;;;;;5011135;28;19983;-84
2024/01/29 01:51:18;;;;;;;;;;;4.10;99.90;;;;;;5012715;28;19921;-84
2024/01/29 01:53:44;;;;;;;;;;;4.00;99.90;;;;;;5014095;28;19921;-84
2024/01/29 01:56:10;;;;;;;;;;;5.30;99.90;;;;;;5030130;28;19975;-84
2024/01/29 01:58:36;;;;;;;;;;;4.70;99.90;;;;;;5013780;28;19925;-84
2024/01/29 02:01:02;;;;;;;;;;;4.60;99.90;;;;;;5011758;28;19943;-84
2024/01/29 02:03:27;;;;;;;;;;;3.90;99.90;;;;;;4986461;28;19947;-85
2024/01/29 02:05:53;;;;;;;;;;;3.90;99.90;;;;;;5029360;28;19988;-84
2024/01/29 02:08:18;;;;;;;;;;;4.50;99.90;;;;;;4995636;28;19925;-84
2024/01/29 02:10:45;;;;;;;;;;;4.20;99.90;;;;;;5028990;28;19925;-84
2024/01/29 02:13:14;;;;;;;;;;;4.20;99.90;;;;;;5010149;28;19922;-85
2024/01/29 02:15:39;;;;;;;;;;;4.10;99.90;;;;;;5028886;28;19924;-85
2024/01/29 02:18:05;;;;;;;;;;;4.40;99.90;;;;;;5012738;28;19929;-84
2024/01/29 02:20:31;;;;;;;;;;;4.10;99.90;;;;;;5012323;28;19921;-84
2024/01/29 02:22:56;;;;;;;;;;;4.10;99.90;;;;;;5012538;28;20195;-84
2024/01/29 02:25:22;;;;;;;;;;;4.10;99.90;;;;;;4995984;28;19925;-83
2024/01/29 02:27:48;;;;;;;;;;;4.10;99.90;;;;;;5010058;28;19922;-84
2024/01/29 02:30:13;;;;;;;;;;;4.10;99.90;;;;;;5015347;28;19929;-85
2024/01/29 02:32:39;;;;;;;;;;;4.20;99.90;;;;;;5009768;28;19932;-84
2024/01/29 02:35:05;;;;;;;;;;;4.10;99.90;;;;;;5018054;28;20404;-84
2024/01/29 02:37:30;;;;;;;;;;;4.00;99.90;;;;;;5016829;28;19925;-84
2024/01/29 02:39:56;;;;;;;;;;;4.00;99.90;;;;;;5012934;28;19928;-84
2024/01/29 02:42:21;;;;;;;;;;;2.60;99.90;;;;;;4982918;28;19925;-84
2024/01/29 02:44:47;;;;;;;;;;;4.70;99.90;;;;;;5016837;28;19925;-84
2024/01/29 02:47:15;;;;;;;;;;;4.70;99.90;;;;;;5016178;28;19947;-84
2024/01/29 02:49:43;;;;;;;;;;;4.30;99.90;;;;;;5016364;28;20013;-84
2024/01/29 02:52:10;;;;;;;;;;;4.10;99.90;;;;;;5016354;28;20347;-84
2024/01/29 02:54:35;;;;;;;;;;;5.20;99.90;;;;;;5000179;28;20404;-84
2024/01/29 02:57:01;;;;;;;;;;;4.50;99.90;;;;;;4982928;28;19932;-84
2024/01/29 02:59:26;;;;;;;;;;;4.60;99.90;;;;;;5016099;28;19980;-84
2024/01/29 03:01:53;;;;;;;;;;;5.00;99.90;;;;;;5013758;28;19928;-84
2024/01/29 03:04:18;;;;;;;;;;;4.70;99.90;;;;;;5016289;28;20374;-84
2024/01/29 03:06:44;;;;;;;;;;;4.50;99.90;;;;;;5015467;28;19975;-84
2024/01/29 03:09:09;;;;;;;;;;;4.10;99.90;;;;;;5012473;28;19926;-84
2024/01/29 03:11:35;;;;;;;;;;;3.80;99.90;;;;;;4992779;28;20020;-84
2024/01/29 03:14:01;;;;;;;;;;;4.70;99.90;;;;;;4998989;28;19978;-85
2024/01/29 03:16:26;;;;;;;;;;;5.60;99.90;;;;;;5015901;28;19921;-84
2024/01/29 03:18:52;;;;;;;;;;;4.70;99.90;;;;;;5015496;28;19921;-84
2024/01/29 03:21:18;;;;;;;;;;;4.00;99.90;;;;;;5030925;28;19928;-84
2024/01/29 03:23:43;;;;;;;;;;;4.60;99.90;;;;;;4998822;28;19922;-84
2024/01/29 03:26:09;;;;;;;;;;;4.30;99.90;;;;;;4982876;28;19944;-84
2024/01/29 03:28:34;;;;;;;;;;;3.90;99.90;;;;;;5015046;28;19925;-84
2024/01/29 03:31:00;;;;;;;;;;;3.90;99.90;;;;;;5015034;28;19972;-84
2024/01/29 03:33:25;;;;;;;;;;;4.20;99.90;;;;;;5014873;28;19929;-85
2024/01/29 03:35:51;;;;;;;;;;;4.50;99.90;;;;;;5016259;28;19928;-84
2024/01/29 03:38:17;;;;;;;;;;;4.70;99.90;;;;;;5016249;28;19955;-84
2024/01/29 03:40:42;;;;;;;;;;;4.00;99.90;;;;;;5026696;28;19928;-84
2024/01/29 03:43:08;;;;;;;;;;;4.80;99.90;;;;;;5009354;28;19926;-84
2024/01/29 03:45:34;;;;;;;;;;;4.00;99.90;;;;;;5013393;28;20374;-84
2024/01/29 03:47:59;;;;;;;;;;;3.80;99.90;;;;;;5014546;28;20044;-84
2024/01/29 03:50:25;;;;;;;;;;;4.40;99.90;;;;;;5015145;28;19926;-84
2024/01/29 03:52:50;;;;;;;;;;;4.70;99.90;;;;;;4982656;28;20439;-84
2024/01/29 03:55:16;;;;;;;;;;;4.60;99.90;;;;;;5014734;28;19921;-84
2024/01/29 03:57:42;;;;;;;;;;;3.70;99.90;;;;;;4996903;28;19925;-83
2024/01/29 04:00:08;;;;;;;;;;;3.70;99.90;;;;;;5030984;28;19989;-84
2024/01/29 04:02:33;;;;;;;;;;;3.70;99.90;;;;;;5013748;28;19929;-84
2024/01/29 04:04:59;;;;;;;;;;;3.70;99.90;;;;;;5013701;28;19921;-84
2024/01/29 04:07:24;;;;;;;;;;;4.40;99.90;;;;;;4998075;28;19936;-84
2024/01/29 04:09:50;;;;;;;;;;;4.30;99.90;;;;;;5014821;28;19980;-83
2024/01/29 04:12:16;;;;;;;;;;;3.70;99.90;;;;;;4999545;28;19921;-83
2024/01/29 04:14:42;;;;;;;;;;;3.70;99.90;;;;;;5015274;28;19925;-83
2024/01/29 04:17:09;;;;;;;;;;;4.30;99.90;;;;;;5014855;28;19940;-84
2024/01/29 04:19:34;;;;;;;;;;;3.70;99.90;;;;;;4998253;28;19928;-84
2024/01/29 04:22:00;;;;;;;;;;;4.20;99.90;;;;;;5013807;28;19921;-84
2024/01/29 04:24:26;;;;;;;;;;;3.90;99.90;;;;;;4999068;28;19921;-84
2024/01/29 04:26:51;;;;;;;;;;;4.30;99.90;;;;;;4998235;28;20000;-83
2024/01/29 04:29:17;;;;;;;;;;;3.50;99.90;;;;;;5013217;28;20452;-84
2024/01/29 04:31:43;;;;;;;;;;;4.80;99.90;;;;;;5013829;28;19937;-84
2024/01/29 04:34:09;;;;;;;;;;;4.30;99.90;;;;;;5014830;28;19921;-85
2024/01/29 04:36:35;;;;;;;;;;;4.60;99.90;;;;;;5012488;28;20009;-85
2024/01/29 04:39:00;;;;;;;;;;;4.50;99.90;;;;;;5024762;28;19929;-84
2024/01/29 04:41:26;;;;;;;;;;;3.70;99.90;;;;;;4981145;28;19928;-84
2024/01/29 04:43:51;;;;;;;;;;;3.70;99.90;;;;;;5011270;28;19929;-85
2024/01/29 04:46:17;;;;;;;;;;;3.90;99.90;;;;;;4995785;28;20016;-84
2024/01/29 04:48:42;;;;;;;;;;;3.70;99.90;;;;;;4996250;28;19906;-84
2024/01/29 04:51:09;;;;;;;;;;;4.20;99.90;;;;;;5013236;28;19922;-84
2024/01/29 04:53:35;;;;;;;;;;;3.70;99.90;;;;;;4987861;28;19929;-83
2024/01/29 04:56:04;;;;;;;;;;;3.70;99.90;;;;;;5008043;28;19976;-84
2024/01/29 04:58:30;;;;;;;;;;;4.60;99.90;;;;;;4996940;28;19937;-84
2024/01/29 05:00:56;;;;;;;;;;;3.90;99.90;;;;;;4996420;28;19925;-84
2024/01/29 05:03:22;;;;;;;;;;;3.70;99.90;;;;;;4981109;28;20289;-84
2024/01/29 05:05:47;;;;;;;;;;;3.80;99.90;;;;;;5014350;28;20421;-84
2024/01/29 05:08:13;;;;;;;;;;;4.20;99.90;;;;;;5010456;28;19921;-85
2024/01/29 05:10:39;;;;;;;;;;;3.90;99.90;;;;;;5001396;28;20337;-84
2024/01/29 05:13:05;;;;;;;;;;;3.90;99.90;;;;;;5030572;28;20139;-84
2024/01/29 05:15:30;;;;;;;;;;;4.10;99.90;;;;;;5014696;28;19923;-84
2024/01/29 05:17:56;;;;;;;;;;;3.90;99.90;;;;;;5013884;28;19926;-84
2024/01/29 05:20:22;;;;;;;;;;;4.50;99.90;;;;;;4997487;28;19925;-84
2024/01/29 05:22:47;;;;;;;;;;;4.00;99.90;;;;;;5009862;28;19922;-84
2024/01/29 05:25:13;;;;;;;;;;;4.40;99.90;;;;;;4996027;28;19921;-84
2024/01/29 05:27:38;;;;;;;;;;;4.40;99.90;;;;;;5009096;28;19944;-84
2024/01/29 05:30:04;;;;;;;;;;;4.30;99.90;;;;;;4996258;28;19967;-84
2024/01/29 05:32:30;;;;;;;;;;;3.70;99.90;;;;;;5014195;28;20385;-84
2024/01/29 05:34:55;;;;;;;;;;;4.40;99.90;;;;;;5012972;28;19928;-85
2024/01/29 05:37:21;;;;;;;;;;;4.40;99.90;;;;;;5013325;28;19925;-84
2024/01/29 05:39:47;;;;;;;;;;;3.70;99.90;;;;;;4997628;28;19973;-84
2024/01/29 05:42:12;;;;;;;;;;;4.10;99.90;;;;;;5013100;28;19925;-84
2024/01/29 05:44:38;;;;;;;;;;;4.20;99.90;;;;;;5011840;28;19929;-84
2024/01/29 05:47:03;;;;;;;;;;;4.30;99.90;;;;;;4993094;28;19922;-84
2024/01/29 05:49:29;;;;;;;;;;;3.60;99.90;;;;;;5002269;28;19928;-84
2024/01/29 05:51:54;;;;;;;;;;;3.60;99.90;;;;;;5028768;28;19929;-84
2024/01/29 05:54:20;;;;;;;;;;;3.50;99.90;;;;;;5011758;28;20008;-85
2024/01/29 05:56:46;;;;;;;;;;;2.40;99.90;;;;;;5010440;28;20575;-84
2024/01/29 05:59:12;;;;;;;;;;;4.10;99.90;;;;;;4993722;28;19973;-84
2024/01/29 06:01:37;;;;;;;;;;;4.60;99.90;;;;;;4997138;28;20266;-84
2024/01/29 06:04:03;;;;;;;;;;;4.40;99.90;;;;;;4998503;28;19921;-84
2024/01/29 06:06:29;;;;;;;;;;;3.80;99.90;;;;;;5019549;28;19926;-84
2024/01/29 06:08:54;;;;;;;;;;;4.30;99.90;;;;;;5019659;28;19926;-84
2024/01/29 06:11:20;;;;;;;;;;;4.20;99.90;;;;;;5003099;28;20565;-84
2024/01/29 06:13:45;;;;;;;;;;;3.90;99.90;;;;;;5017175;28;19926;-84
2024/01/29 06:16:11;;;;;;;;;;;3.80;99.90;;;;;;5019087;28;19921;-84
2024/01/29 06:18:37;;;;;;;;;;;4.80;99.90;;;;;;5000141;28;20008;-84
2024/01/29 06:21:03;;;;;;;;;;;4.10;99.90;;;;;;5019219;28;19992;-85
2024/01/29 06:23:28;;;;;;;;;;;3.90;99.90;;;;;;4986708;28;19922;-84
2024/01/29 06:25:54;;;;;;;;;;;3.90;99.90;;;;;;5002765;28;19925;-84
2024/01/29 06:28:20;;;;;;;;;;;4.00;99.90;;;;;;5019016;28;19957;-84
2024/01/29 06:30:45;;;;;;;;;;;4.20;99.90;;;;;;5019219;28;19929;-84
2024/01/29 06:33:11;;;;;;;;;;;4.60;99.90;;;;;;5018173;28;20361;-85
2024/01/29 06:35:37;;;;;;;;;;;3.90;99.90;;;;;;5017648;28;19936;-84
2024/01/29 06:38:03;;;;;;;;;;;4.20;99.90;;;;;;5018847;28;19948;-84
2024/01/29 06:40:28;;;;;;;;;;;3.80;99.90;;;;;;5034774;28;19922;-84
2024/01/29 06:42:55;;;;;;;;;;;3.80;99.90;;;;;;5014867;28;19922;-84
2024/01/29 06:45:21;;;;;;;;;;;3.80;99.90;;;;;;5015275;28;19992;-84
2024/01/29 06:47:46;;;;;;;;;;;3.80;99.90;;;;;;5003594;28;20324;-84
2024/01/29 06:50:12;;;;;;;;;;;4.80;99.90;;;;;;5021138;28;19949;-84
2024/01/29 06:52:38;;;;;;;;;;;3.80;99.90;;;;;;5019330;28;20369;-84
2024/01/29 06:55:03;;;;;;;;;;;4.40;99.90;;;;;;5019326;28;19971;-84
2024/01/29 06:57:29;;;;;;;;;;;3.60;99.90;;;;;;5015948;28;20267;-83
2024/01/29 06:59:55;;;;;;;;;;;4.00;99.90;;;;;;5036721;28;20354;-84
2024/01/29 07:02:21;;;;;;;;;;;3.90;99.90;;;;;;5022392;28;20029;-84
2024/01/29 07:04:47;;;;;;;;;;;4.30;99.90;;;;;;4986993;28;19975;-84
2024/01/29 07:07:13;;;;;;;;;;;3.80;99.90;;;;;;5003203;28;19925;-83
2024/01/29 07:09:39;;;;;;;;;;;5.50;99.90;;;;;;4999080;28;19922;-84
2024/01/29 07:12:05;;;;;;;;;;;4.00;99.90;;;;;;5034204;28;19925;-84
2024/01/29 07:14:31;;;;;;;;;;;3.80;99.90;;;;;;5035621;28;19928;-83
2024/01/29 07:16:57;;;;;;;;;;;3.80;99.90;;;;;;5032547;28;19926;-84
2024/01/29 07:19:25;;;;;;;;;;;4.00;99.90;;;;;;5033613;28;19922;-83
2024/01/29 07:21:51;;;;;;;;;;;3.80;99.90;;;;;;5000220;28;19921;-84
2024/01/29 07:24:17;;;;;;;;;;;3.70;99.90;;;;;;5017199;28;19952;-84
2024/01/29 07:26:42;;;;;;;;;;;4.40;99.90;;;;;;4999852;28;19921;-84
2024/01/29 07:29:08;;;;;;;;;;;4.20;99.90;;;;;;5015746;28;19921;-84
2024/01/29 07:31:34;;;;;;;;;;;3.80;99.90;;;;;;5032419;28;19976;-83
2024/01/29 07:34:00;;;;;;;;;;;3.80;99.90;;;;;;5032459;28;19921;-83
2024/01/29 07:36:26;;;;;;;;;;;4.90;99.90;;;;;;5015458;28;20008;-84
2024/01/29 07:38:51;;;;;;;;;;;3.80;99.90;;;;;;5015837;28;20370;-84
2024/01/29 07:41:17;;;;;;;;;;;4.50;99.90;;;;;;5016505;28;19972;-84
2024/01/29 07:43:42;;;;;;;;;;;3.80;99.90;;;;;;5016557;28;20020;-85
2024/01/29 07:46:10;;;;;;;;;;;4.00;99.90;;;;;;5016722;28;19929;-84
2024/01/29 07:48:36;;;;;;;;;;;3.90;99.90;;;;;;5015994;28;19926;-85
2024/01/29 07:51:01;;;;;;;;;;;5.50;99.90;;;;;;4995169;28;20419;-85
2024/01/29 07:53:27;;;;;;;;;;;3.90;99.90;;;;;;5010623;28;19921;-85
2024/01/29 07:55:52;;;;;;;;;;;4.00;99.90;;;;;;4999403;28;19928;-84
2024/01/29 07:58:18;;;;;;;;;;;4.40;99.90;;;;;;5016043;28;19925;-84
2024/01/29 08:00:44;;;;;;;;;;;4.00;99.90;;;;;;4998000;28;20396;-84
2024/01/29 08:03:09;;;;;;;;;;;4.80;99.90;;;;;;4995731;28;19968;-84
2024/01/29 08:05:35;;;;;;;;;;;4.40;99.90;;;;;;5006346;28;19976;-84
2024/01/29 08:08:00;;;;;;;;;;;4.80;99.90;;;;;;5012662;28;19977;-85
2024/01/29 08:10:26;;;;;;;;;;;4.50;99.90;;;;;;5014929;28;19976;-85
2024/01/29 08:12:52;;;;;;;;;;;4.60;99.90;;;;;;5015780;28;19921;-85
2024/01/29 08:15:17;;;;;;;;;;;4.10;99.90;;;;;;5011361;28;20285;-85
2024/01/29 08:17:43;;;;;;;;;;;5.40;99.90;;;;;;5030275;28;19969;-85
2024/01/29 08:20:08;;;;;;;;;;;4.60;99.90;;;;;;5014584;28;20370;-85
2024/01/29 08:22:34;;;;;;;;;;;4.50;99.90;;;;;;5031706;28;19968;-85
2024/01/29 08:25:00;;;;;;;;;;;5.00;99.90;;;;;;5015571;28;19921;-85
2024/01/29 08:27:29;;;;;;;;;;;5.20;99.90;;;;;;5011121;28;20481;-85
2024/01/29 08:29:54;;;;;;;;;;;5.00;99.90;;;;;;4998881;28;19921;-84
2024/01/29 08:32:21;;;;;;;;;;;4.60;99.90;;;;;;5014866;28;19944;-84
2024/01/29 08:34:48;;;;;;;;;;;4.70;99.90;;;;;;5014479;28;19922;-85
2024/01/29 08:37:13;;;;;;;;;;;5.00;99.90;;;;;;5009028;28;19925;-85
2024/01/29 08:39:39;;;;;;;;;;;4.80;99.90;;;;;;5010469;28;19943;-84
2024/01/29 08:42:06;;;;;;;;;;;4.80;99.90;;;;;;4998076;28;19975;-84
2024/01/29 08:44:31;;;;;;;;;;;4.90;99.90;;;;;;5019004;28;19921;-84
2024/01/29 08:46:57;;;;;;;;;;;5.30;99.90;;;;;;5021902;28;20032;-83
2024/01/29 08:49:23;;;;;;;;;;;4.90;99.90;;;;;;5028075;28;19921;-84
2024/01/29 08:51:49;;;;;;;;;;;5.00;99.90;;;;;;5043300;28;19922;-83
2024/01/29 08:54:14;;;;;;;;;;;5.10;99.90;;;;;;5007975;28;19988;-84
2024/01/29 08:56:41;;;;;;;;;;;5.60;99.90;;;;;;4990479;28;20369;-85
2024/01/29 08:59:07;;;;;;;;;;;5.20;99.90;;;;;;4998555;28;19976;-85
2024/01/29 09:01:33;;;;;;;;;;;5.40;99.90;;;;;;5020073;28;20286;-85
2024/01/29 09:03:59;;;;;;;;;;;5.30;99.90;;;;;;5010034;28;19929;-84
2024/01/29 09:06:24;;;;;;;;;;;5.40;99.90;;;;;;5020813;28;19932;-86
2024/01/29 09:08:50;;;;;;;;;;;5.50;99.90;;;;;;5021436;28;19917;-84
2024/01/29 09:11:16;;;;;;;;;;;5.50;99.90;;;;;;4997511;28;19937;-84
2024/01/29 09:13:41;;;;;;;;;;;5.40;99.90;;;;;;5021002;28;19921;-84
2024/01/29 09:16:08;;;;;;;;;;;5.50;99.90;;;;;;5007532;28;19921;-84
2024/01/29 09:18:34;;;;;;;;;;;5.50;99.90;;;;;;5016101;28;20285;-84
2024/01/29 09:21:00;;;;;;;;;;;5.60;99.90;;;;;;5016159;28;19922;-84
2024/01/29 09:23:27;;;;;;;;;;;6.10;99.90;;;;;;5006171;28;19929;-84
2024/01/29 09:25:52;;;;;;;;;;;5.70;99.90;;;;;;5008941;28;19953;-84
2024/01/29 09:28:18;;;;;;;;;;;6.20;99.90;;;;;;4994376;28;19964;-84
2024/01/29 09:30:43;;;;;;;;;;;6.10;99.90;;;;;;5001061;28;19925;-83
2024/01/29 09:33:09;;;;;;;;;;;6.30;99.90;;;;;;4995784;28;19928;-83
2024/01/29 09:35:34;;;;;;;;;;;6.90;99.90;;;;;;4994504;28;19932;-83
2024/01/29 09:38:00;;;;;;;;;;;6.60;99.90;;;;;;4979504;28;19967;-83
2024/01/29 09:40:26;;;;;;;;;;;6.70;99.90;;;;;;5028796;28;19936;-83
2024/01/29 09:42:54;;;;;;;;;;;6.80;99.90;;;;;;4996175;28;19921;-83
2024/01/29 09:45:25;;;;;;;;;;;7.00;99.90;;;;;;5005054;28;19932;-84
2024/01/29 09:47:55;;;;;;;;;;;7.00;99.90;;;;;;5012953;28;19928;-83
2024/01/29 09:50:23;;;;;;;;;;;7.10;99.90;;;;;;4992820;28;19921;-82
2024/01/29 09:52:48;;;;;;;;;;;7.40;99.90;;;;;;5010796;28;19977;-83
2024/01/29 09:55:14;;;;;;;;;;;7.30;99.90;;;;;;5011269;28;20168;-83
2024/01/29 09:57:40;;;;;;;;;;;7.50;99.90;;;;;;5009196;28;19952;-83
2024/01/29 10:00:06;;;;;;;;;;;7.70;99.90;;;;;;5011953;28;19921;-83
2024/01/29 10:02:33;;;;;;;;;;;7.90;99.90;;;;;;5012128;28;19991;-82
2024/01/29 10:04:59;;;;;;;;;;;7.80;99.90;;;;;;5025736;28;19968;-83
2024/01/29 10:07:25;;;;;;;;;;;7.90;99.90;;;;;;4995811;28;19925;-83
2024/01/29 10:09:51;;;;;;;;;;;7.90;99.90;;;;;;5028270;28;19976;-83
2024/01/29 10:12:23;;;;;;;;;;;7.90;99.90;;;;;;5029309;28;19928;-83
2024/01/29 10:14:49;;;;;;;;;;;8.00;99.90;;;;;;5011269;28;19905;-83
2024/01/29 10:17:15;;;;;;;;;;;8.10;99.90;;;;;;5012892;28;19933;-84
2024/01/29 10:19:43;;;;;;;;;;;8.50;99.90;;;;;;4995807;28;20340;-84
2024/01/29 10:22:10;;;;;;;;;;;9.00;99.90;;;;;;5011389;28;19921;-87
2024/01/29 10:24:36;;;;;;;;;;;9.70;99.90;;;;;;4990062;28;19921;-85
2024/01/29 10:27:06;;;;;;;;;;;10.50;99.90;;;;;;5006306;28;19921;-85
2024/01/29 10:29:31;;;;;;;;;;;10.80;99.90;;;;;;5010514;28;19921;-84
2024/01/29 10:31:59;;;;;;;;;;;10.90;99.90;;;;;;5013361;28;20434;-83
2024/01/29 10:34:24;;;;;;;;;;;10.90;99.90;;;;;;4995876;28;19960;-84
2024/01/29 10:36:50;;;;;;;;;;;11.20;99.90;;;;;;5010343;28;19944;-85
2024/01/29 10:39:17;;;;;;;;;;;11.60;99.90;;;;;;5029341;28;19926;-84
2024/01/29 10:41:44;;;;;;;;;;;11.80;99.90;;;;;;5029553;28;20008;-85
2024/01/29 10:44:11;;;;;;;;;;;11.90;99.90;;;;;;4990111;28;19922;-84
2024/01/29 10:46:37;;;;;;;;;;;11.90;99.90;;;;;;4992375;28;19926;-84
2024/01/29 10:49:03;;;;;;;;;;;11.50;99.90;;;;;;5003292;28;19928;-84
2024/01/29 10:51:30;;;;;;;;;;;10.90;99.90;;;;;;5011322;28;20000;-84
2024/01/29 10:53:56;;;;;;;;;;;10.40;99.90;;;;;;5015242;28;19943;-84
2024/01/29 10:56:22;;;;;;;;;;;10.00;99.90;;;;;;5012572;28;20437;-84
2024/01/29 10:58:49;;;;;;;;;;;9.90;99.90;;;;;;5015240;28;19926;-84
2024/01/29 11:01:14;;;;;;;;;;;10.00;99.90;;;;;;4998959;28;19928;-84
2024/01/29 11:03:41;;;;;;;;;;;10.00;99.90;;;;;;4998743;28;19922;-84
2024/01/29 11:06:18;;;;;;;;;;;10.20;99.90;;;;;;5032127;28;19928;-85
2024/01/29 11:08:45;;;;;;;;;;;9.90;99.90;;;;;;5015600;28;19921;-82
2024/01/29 11:11:11;;;;;;;;;;;9.70;99.90;;;;;;5014851;28;19934;-84
2024/01/29 11:13:37;;;;;;;;;;;9.50;99.90;;;;;;5014638;28;19921;-84
2024/01/29 11:16:03;;;;;;;;;;;9.40;99.90;;;;;;5008359;28;20027;-84
2024/01/29 11:18:35;;;;;;;;;;;9.30;99.90;;;;;;5016284;28;20297;-84
2024/01/29 11:21:01;;;;;;;;;;;9.20;99.90;;;;;;5015959;28;19922;-84
2024/01/29 11:23:30;;;;;;;;;;;9.10;99.90;;;;;;5014765;28;19976;-83
2024/01/29 11:25:59;;;;;;;;;;;9.10;99.90;;;;;;5013865;28;19976;-83
2024/01/29 11:28:26;;;;;;;;;;;9.10;99.90;;;;;;5014063;28;19925;-84
2024/01/29 11:30:54;;;;;;;;;;;8.90;99.90;;;;;;4996288;28;19975;-83
2024/01/29 11:33:21;;;;;;;;;;;8.90;99.90;;;;;;4997315;28;19922;-84
2024/01/29 11:35:49;;;;;;;;;;;8.80;99.90;;;;;;4995318;28;19921;-84
2024/01/29 11:38:20;;;;;;;;;;;8.80;99.90;;;;;;5013485;28;19984;-84
2024/01/29 11:40:46;;;;;;;;;;;8.70;99.90;;;;;;5014320;28;19969;-84
2024/01/29 11:43:14;;;;;;;;;;;8.70;99.90;;;;;;5017278;28;19944;-84
2024/01/29 11:45:40;;;;;;;;;;;8.70;99.90;;;;;;4997692;28;20440;-83
2024/01/29 11:48:10;;;;;;;;;;;8.70;99.90;;;;;;4997046;28;20282;-83
2024/01/29 11:50:40;;;;;;;;;;;8.80;99.90;;;;;;5030655;28;19929;-83
2024/01/29 11:53:09;;;;;;;;;;;8.80;99.90;;;;;;4997468;28;20016;-84
2024/01/29 11:55:34;;;;;;;;;;;8.80;99.90;;;;;;5001049;28;20271;-84
2024/01/29 11:58:00;;;;;;;;;;;8.80;99.90;;;;;;5011956;28;19933;-83
2024/01/29 12:00:26;;;;;;;;;;;9.00;99.90;;;;;;4998139;28;19926;-83
2024/01/29 12:02:51;;;;;;;;;;;9.10;99.90;;;;;;5013502;28;20333;-83
2024/01/29 12:05:18;;;;;;;;;;;9.40;99.90;;;;;;5013667;28;19976;-84
2024/01/29 12:07:47;;;;;;;;;;;9.70;99.90;;;;;;4996879;28;19922;-83
2024/01/29 12:10:14;;;;;;;;;;;9.90;99.90;;;;;;5029309;28;19926;-84
2024/01/29 12:12:39;;;;;;;;;;;10.20;99.90;;;;;;4993483;28;19921;-85
2024/01/29 12:15:06;;;;;;;;;;;10.30;99.90;;;;;;5014852;28;19951;-84
2024/01/29 12:17:32;;;;;;;;;;;10.30;99.90;;;;;;5011881;28;19929;-83
2024/01/29 12:19:59;;;;;;;;;;;10.30;99.90;;;;;;4996408;28;19922;-85
2024/01/29 12:22:24;;;;;;;;;;;10.30;99.90;;;;;;5013234;28;19921;-84
2024/01/29 12:24:50;;;;;;;;;;;10.30;99.90;;;;;;5014351;28;19922;-83
2024/01/29 12:27:17;;;;;;;;;;;10.30;99.90;;;;;;5013496;28;19932;-84
2024/01/29 12:29:44;;;;;;;;;;;10.30;99.90;;;;;;5002256;28;19926;-83
2024/01/29 12:32:13;;;;;;;;;;;10.20;99.90;;;;;;4988905;28;19921;-84
2024/01/29 12:34:43;;;;;;;;;;;10.20;99.90;;;;;;4988163;28;19922;-82
2024/01/29 12:37:16;;;;;;;;;;;10.20;99.90;;;;;;4998613;28;19925;-83
2024/01/29 12:39:42;;;;;;;;;;;10.20;99.90;;;;;;4997790;28;19921;-83
2024/01/29 12:42:13;;;;;;;;;;;10.20;99.90;;;;;;4981507;28;19922;-82
2024/01/29 12:44:38;;;;;;;;;;;10.20;99.90;;;;;;4997011;28;19980;-82
2024/01/29 12:47:11;;;;;;;;;;;10.20;99.90;;;;;;5012641;28;19972;-84
2024/01/29 12:49:36;;;;;;;;;;;10.20;99.90;;;;;;4998646;28;20011;-83
2024/01/29 12:52:02;;;;;;;;;;;10.30;99.90;;;;;;5029062;28;20366;-83
2024/01/29 12:54:27;;;;;;;;;;;10.30;99.90;;;;;;5012386;28;19921;-84
2024/01/29 12:56:53;;;;;;;;;;;10.30;99.90;;;;;;5014267;28;19979;-83
2024/01/29 12:59:19;;;;;;;;;;;10.40;99.90;;;;;;4993456;28;20312;-83
2024/01/29 13:01:44;;;;;;;;;;;10.50;99.90;;;;;;4996991;28;19922;-84
2024/01/29 13:04:10;;;;;;;;;;;10.80;99.90;;;;;;4992569;28;19929;-84
2024/01/29 13:06:35;;;;;;;;;;;10.90;99.90;;;;;;4981205;28;19932;-83
2024/01/29 13:09:03;;;;;;;;;;;10.90;99.90;;;;;;5010491;28;20321;-84
2024/01/29 13:11:29;;;;;;;;;;;10.90;99.90;;;;;;4997401;28;19969;-83
2024/01/29 13:13:55;;;;;;;;;;;10.80;99.90;;;;;;4973770;28;20465;-83
2024/01/29 13:16:20;;;;;;;;;;;10.80;99.90;;;;;;5013489;28;19921;-84
2024/01/29 13:18:46;;;;;;;;;;;10.80;99.90;;;;;;5012470;28;19948;-85
2024/01/29 13:21:12;;;;;;;;;;;10.80;99.90;;;;;;5008669;28;19961;-85
2024/01/29 13:23:38;;;;;;;;;;;10.70;99.90;;;;;;5013659;28;19922;-85
2024/01/29 13:26:03;;;;;;;;;;;10.70;99.90;;;;;;4980427;28;20931;-85
2024/01/29 13:28:29;;;;;;;;;;;10.60;99.90;;;;;;4996475;28;19922;-85
2024/01/29 13:30:55;;;;;;;;;;;10.60;99.90;;;;;;5014198;28;19960;-84
2024/01/29 13:33:23;;;;;;;;;;;10.60;99.90;;;;;;5011304;28;19984;-85
2024/01/29 13:35:50;;;;;;;;;;;10.60;99.90;;;;;;5014005;28;20266;-85
2024/01/29 13:38:16;;;;;;;;;;;10.50;99.90;;;;;;5027574;28;19933;-85
2024/01/29 13:40:42;;;;;;;;;;;10.50;99.90;;;;;;5012516;28;20447;-85
2024/01/29 13:43:08;;;;;;;;;;;10.50;99.90;;;;;;5015212;28;19921;-85
2024/01/29 13:45:34;;;;;;;;;;;10.50;99.90;;;;;;4992121;28;19925;-85
2024/01/29 13:47:59;;;;;;;;;;;10.50;99.90;;;;;;5011946;28;19987;-86
2024/01/29 13:50:25;;;;;;;;;;;10.40;99.90;;;;;;4994201;28;19925;-85
2024/01/29 13:52:51;;;;;;;;;;;10.50;99.90;;;;;;5013159;28;19921;-85
2024/01/29 13:55:17;;;;;;;;;;;10.40;99.90;;;;;;5028532;28;19929;-85
2024/01/29 13:57:42;;;;;;;;;;;10.40;99.90;;;;;;4996816;28;19925;-84
2024/01/29 14:00:10;;;;;;;;;;;10.30;99.90;;;;;;4994392;28;20282;-84
2024/01/29 14:02:36;;;;;;;;;;;10.40;99.90;;;;;;5014871;28;19925;-84
2024/01/29 14:05:04;;;;;;;;;;;10.40;99.90;;;;;;4996844;28;20063;-83
2024/01/29 14:07:30;;;;;;;;;;;10.40;99.90;;;;;;4992732;28;19956;-86
2024/01/29 14:09:55;;;;;;;;;;;10.30;99.90;;;;;;4983507;28;19996;-85
2024/01/29 14:12:23;;;;;;;;;;;10.30;99.90;;;;;;5017147;28;22163;-86
2024/01/29 14:14:49;;;;;;;;;;;10.30;99.90;;;;;;5010495;28;19976;-84
2024/01/29 14:17:14;;;;;;;;;;;10.30;99.90;;;;;;5025327;28;20012;-85
2024/01/29 14:19:40;;;;;;;;;;;10.30;99.90;;;;;;4996505;28;19928;-86
2024/01/29 14:22:05;;;;;;;;;;;10.50;99.90;;;;;;4996846;28;19927;-85